Time;durP1;ratioP1;P1;durP2;ratioP2;P2;SDS_P1;SDS_P2;PMS_P1;PMS_P2;Temp;Humidity;BMP_temperature;BMP_pressure;BME280_temperature;BME280_humidity;BME280_pressure;Samples;Min_cycle;Max_cycle;Signal;HPM_P1;HPM_P2
2022/09/25 00:01:03;;;;;;;4.20;2.90;;;;;;;13.35;61.26;98598.66;5090600;28;20255;-59
2022/09/25 00:03:29;;;;;;;2.72;2.53;;;;;;;13.30;61.29;98606.78;5090552;28;20207;-58
2022/09/25 00:06:07;;;;;;;1.88;1.77;;;;;;;13.25;60.91;98608.06;5091820;28;20726;-58
2022/09/25 00:08:33;;;;;;;2.80;2.40;;;;;;;13.20;60.61;98611.03;5091893;28;20168;-59
2022/09/25 00:10:59;;;;;;;3.75;2.47;;;;;;;13.19;60.01;98608.53;5091804;28;20196;-59
2022/09/25 00:13:24;;;;;;;2.63;2.42;;;;;;;13.22;60.22;98609.13;5090483;28;20677;-59
2022/09/25 00:15:53;;;;;;;2.60;2.40;;;;;;;13.28;59.73;98605.22;5091760;28;20180;-59
2022/09/25 00:21:05;;;;;;;2.42;2.30;;;;;;;13.43;58.58;98617.06;5092187;28;20164;-58
2022/09/25 00:23:31;;;;;;;2.45;2.25;;;;;;;13.42;58.83;98605.03;5091674;28;20711;-59
2022/09/25 00:25:58;;;;;;;2.92;2.30;;;;;;;13.43;59.51;98601.47;5091821;28;20176;-58
2022/09/25 00:28:24;;;;;;;3.00;2.80;;;;;;;13.44;60.20;98608.31;5091588;28;20176;-58
2022/09/25 00:30:49;;;;;;;3.17;2.20;;;;;;;13.43;60.38;98599.72;5090339;28;20184;-59
2022/09/25 00:33:15;;;;;;;2.80;2.58;;;;;;;13.36;59.93;98605.50;5094514;28;20225;-58
2022/09/25 00:35:40;;;;;;;2.50;2.40;;;;;;;13.29;60.93;98606.91;5095374;28;20643;-59
2022/09/25 00:38:06;;;;;;;2.65;2.53;;;;;;;13.19;61.96;98609.34;5095251;28;20193;-58
2022/09/25 00:40:31;;;;;;;2.97;2.65;;;;;;;13.03;62.21;98598.50;5095301;28;20180;-59
2022/09/25 00:42:56;;;;;;;2.58;2.38;;;;;;;13.10;62.41;98599.69;5095224;28;20614;-59
2022/09/25 00:45:22;;;;;;;2.40;2.30;;;;;;;13.07;62.97;98594.69;5095432;28;20176;-59
2022/09/25 00:47:51;;;;;;;2.42;2.33;;;;;;;13.01;63.48;98583.97;5095410;28;20169;-59
2022/09/25 00:50:22;;;;;;;2.65;2.50;;;;;;;13.03;63.76;98587.25;5095024;28;20263;-58
2022/09/25 00:52:50;;;;;;;2.70;2.50;;;;;;;13.05;63.81;98582.75;5095625;28;20547;-59
2022/09/25 00:55:16;;;;;;;2.85;2.65;;;;;;;12.97;63.94;98582.53;5094925;28;20187;-59
2022/09/25 00:57:47;;;;;;;2.45;2.35;;;;;;;12.98;63.66;98573.78;5094942;28;20254;-59
2022/09/25 01:00:14;;;;;;;2.47;2.38;;;;;;;12.95;64.24;98589.59;5095020;28;20652;-58
2022/09/25 01:02:45;;;;;;;2.90;2.70;;;;;;;12.93;63.55;98575.88;5094867;28;20179;-59
2022/09/25 01:05:15;;;;;;;2.30;2.20;;;;;;;12.94;63.92;98593.09;5095020;28;20199;-59
2022/09/25 01:07:44;;;;;;;3.33;2.40;;;;;;;12.84;64.24;98582.56;5094771;28;20230;-59
2022/09/25 01:10:10;;;;;;;2.40;2.30;;;;;;;12.77;64.22;98576.19;5094637;28;20575;-59
2022/09/25 01:12:39;;;;;;;2.83;2.55;;;;;;;12.78;64.22;98585.63;5094946;28;20259;-59
2022/09/25 01:15:07;;;;;;;2.38;2.28;;;;;;;12.79;64.02;98594.25;5094604;28;20184;-59
2022/09/25 01:17:44;;;;;;;2.50;2.30;;;;;;;12.74;63.80;98601.56;5094422;28;20203;-58
2022/09/25 01:20:24;;;;;;;2.70;2.60;;;;;;;12.79;64.13;98579.53;5094438;28;20555;-59
2022/09/25 01:23:27;;;;;;;3.67;3.08;;;;;;;12.68;64.67;98586.44;5094525;28;20171;-58
2022/09/25 01:26:11;;;;;;;4.05;2.65;;;;;;;12.76;64.88;98573.69;5093116;28;20187;-59
2022/09/25 01:28:58;;;;;;;2.67;2.47;;;;;;;12.69;64.83;98575.09;5094467;28;20673;-59
2022/09/25 01:31:52;;;;;;;2.72;2.53;;;;;;;12.72;64.37;98580.09;5094383;28;20187;-59
2022/09/25 01:34:49;;;;;;;5.72;2.65;;;;;;;12.67;64.53;98585.59;5088454;28;20665;-58
2022/09/25 01:37:23;;;;;;;2.88;2.67;;;;;;;12.56;64.89;98582.16;5094454;28;20203;-59
2022/09/25 01:40:01;;;;;;;3.22;2.92;;;;;;;12.52;65.74;98581.56;5094163;28;20160;-59
2022/09/25 01:42:33;;;;;;;2.92;2.72;;;;;;;12.58;65.99;98572.47;5094349;28;20168;-59
2022/09/25 01:45:04;;;;;;;2.45;2.17;;;;;;;12.63;65.14;98572.97;5093525;28;20160;-59
2022/09/25 01:47:36;;;;;;;3.60;2.97;;;;;;;12.68;65.63;98578.66;5094514;28;20610;-59
2022/09/25 01:50:48;;;;;;;2.60;2.40;;;;;;;12.51;64.87;98586.84;5093907;28;20186;-58
2022/09/25 01:53:20;;;;;;;2.72;2.47;;;;;;;12.56;65.37;98579.56;5083186;28;20198;-59
2022/09/25 01:55:49;;;;;;;3.70;2.38;;;;;;;12.55;65.16;98581.31;5094062;28;20192;-59
2022/09/25 01:58:47;;;;;;;3.45;2.75;;;;;;;12.50;64.69;98595.59;5094023;28;20696;-59
2022/09/25 02:01:22;;;;;;;2.40;2.30;;;;;;;12.61;64.68;98599.03;5070581;28;20196;-59
2022/09/25 02:03:55;;;;;;;2.47;2.33;;;;;;;12.50;64.77;98590.38;5093968;28;20258;-59
2022/09/25 02:06:22;;;;;;;2.65;2.50;;;;;;;12.48;64.25;98595.69;5093694;28;20213;-58
2022/09/25 02:09:00;;;;;;;2.70;2.50;;;;;;;12.55;64.24;98596.06;5093537;28;20176;-59
2022/09/25 02:11:32;;;;;;;2.75;2.55;;;;;;;12.63;63.82;98593.72;5093985;28;20198;-59
2022/09/25 02:14:05;;;;;;;2.90;2.70;;;;;;;12.70;64.04;98574.16;5093989;28;20164;-58
2022/09/25 02:16:37;;;;;;;3.15;2.70;;;;;;;12.60;64.69;98583.59;5093672;28;20219;-59
2022/09/25 02:22:03;;;;;;;2.50;2.30;;;;;;;12.55;64.09;98580.50;5093611;28;20218;-59
2022/09/25 02:25:03;;;;;;;2.28;2.17;;;;;;;12.60;63.63;98588.78;5093333;28;20184;-59
2022/09/25 02:27:29;;;;;;;2.40;2.30;;;;;;;12.55;63.77;98588.28;5076970;28;20184;-59
2022/09/25 02:29:57;;;;;;;2.38;2.28;;;;;;;12.60;63.61;98586.19;5093361;28;20233;-59
2022/09/25 02:32:28;;;;;;;2.75;2.60;;;;;;;12.64;63.90;98590.19;5093409;28;20234;-59
2022/09/25 02:34:55;;;;;;;3.67;2.90;;;;;;;12.63;64.45;98584.19;5093225;28;20175;-59
2022/09/25 02:37:20;;;;;;;3.10;2.85;;;;;;;12.55;65.86;98590.88;5093041;28;20279;-59
2022/09/25 02:39:50;;;;;;;2.85;2.65;;;;;;;12.49;66.52;98586.16;5092950;28;20655;-59
2022/09/25 02:42:25;;;;;;;2.50;2.30;;;;;;;12.50;65.54;98593.00;5091673;28;20206;-59
2022/09/25 02:45:11;;;;;;;2.90;2.70;;;;;;;12.38;66.50;98583.50;5093235;28;20156;-59
2022/09/25 02:47:55;;;;;;;2.70;2.60;;;;;;;12.44;65.07;98578.69;5093013;28;20259;-59
2022/09/25 02:50:31;;;;;;;2.70;2.50;;;;;;;12.37;66.97;98581.84;5092783;28;20653;-59
2022/09/25 02:53:27;;;;;;;3.40;2.47;;;;;;;12.16;68.39;98580.81;5092933;28;20214;-59
2022/09/25 02:56:19;;;;;;;3.00;2.80;;;;;;;12.13;69.10;98591.41;5092782;28;20648;-59
2022/09/25 02:58:51;;;;;;;3.10;2.80;;;;;;;12.20;68.39;98584.84;5093247;28;20240;-59
2022/09/25 03:01:19;;;;;;;3.20;2.55;;;;;;;12.29;66.28;98578.97;5092932;28;20172;-59
2022/09/25 03:03:48;;;;;;;2.80;2.70;;;;;;;12.26;65.47;98581.81;5092559;28;20181;-59
2022/09/25 03:06:14;;;;;;;2.85;2.63;;;;;;;12.44;65.57;98583.88;5092752;28;20168;-59
2022/09/25 03:08:45;;;;;;;3.22;2.80;;;;;;;12.23;65.51;98589.78;5092511;28;20664;-59
2022/09/25 03:11:14;;;;;;;2.63;2.42;;;;;;;12.37;63.98;98584.44;5092529;28;20203;-59
2022/09/25 03:13:40;;;;;;;2.65;2.55;;;;;;;12.38;64.34;98578.31;5092470;28;20220;-59
2022/09/25 03:16:14;;;;;;;2.50;2.40;;;;;;;12.44;64.21;98588.25;5092533;28;20599;-59
2022/09/25 03:18:40;;;;;;;2.30;2.20;;;;;;;12.44;64.45;98593.44;5090986;28;20231;-59
2022/09/25 03:21:05;;;;;;;2.45;2.35;;;;;;;12.29;64.84;98595.38;5092594;28;20205;-58
2022/09/25 03:23:31;;;;;;;2.83;2.42;;;;;;;12.27;64.83;98594.66;5092300;28;20175;-58
2022/09/25 03:25:57;;;;;;;2.58;2.47;;;;;;;12.11;65.09;98583.75;5092334;28;20168;-58
2022/09/25 03:28:23;;;;;;;2.53;2.40;;;;;;;12.07;65.42;98584.06;5092273;28;20689;-58
2022/09/25 03:30:57;;;;;;;2.92;2.58;;;;;;;12.05;65.64;98581.59;5092494;28;20711;-58
2022/09/25 03:33:23;;;;;;;2.65;2.45;;;;;;;12.23;64.65;98594.97;5092202;28;20199;-58
2022/09/25 03:35:59;;;;;;;3.00;2.80;;;;;;;12.28;64.28;98595.47;5092177;28;20206;-58
2022/09/25 03:38:24;;;;;;;6.00;2.80;;;;;;;12.36;63.45;98585.41;5092051;28;20192;-58
2022/09/25 03:40:50;;;;;;;2.78;2.58;;;;;;;12.46;63.48;98592.38;5092238;28;20179;-58
2022/09/25 03:43:15;;;;;;;2.40;2.30;;;;;;;12.46;63.00;98591.53;5092150;28;20251;-58
2022/09/25 03:45:41;;;;;;;2.90;2.50;;;;;;;12.42;63.18;98597.91;5090802;28;20563;-58
2022/09/25 03:48:06;;;;;;;2.55;2.35;;;;;;;12.28;63.83;98587.69;5092069;28;20171;-58
2022/09/25 03:50:31;;;;;;;2.80;2.60;;;;;;;12.23;64.10;98594.97;5091972;28;20164;-58
2022/09/25 03:52:57;;;;;;;2.72;2.40;;;;;;;12.11;64.22;98586.34;5091984;28;20668;-58
2022/09/25 03:55:24;;;;;;;3.00;2.80;;;;;;;12.02;65.11;98580.97;5091946;28;20164;-58
2022/09/25 03:57:50;;;;;;;2.70;2.50;;;;;;;12.16;64.73;98589.44;5092035;28;20295;-58
2022/09/25 04:00:16;;;;;;;2.63;2.53;;;;;;;12.05;65.00;98565.19;5091956;28;20653;-58
2022/09/25 04:02:42;;;;;;;2.53;2.35;;;;;;;12.09;64.80;98567.44;5091812;28;20657;-58
2022/09/25 04:05:08;;;;;;;2.60;2.50;;;;;;;12.08;64.80;98559.78;5091886;28;20195;-58
2022/09/25 04:07:34;;;;;;;2.80;2.60;;;;;;;12.02;64.80;98560.22;5093293;28;20548;-58
2022/09/25 04:09:59;;;;;;;2.70;2.50;;;;;;;11.94;64.92;98573.75;5096151;28;20172;-58
2022/09/25 04:12:25;;;;;;;2.63;2.42;;;;;;;12.01;65.08;98587.09;5095756;28;20213;-58
2022/09/25 04:14:51;;;;;;;2.97;2.78;;;;;;;11.91;64.77;98563.56;5095985;28;20176;-58
2022/09/25 04:17:16;;;;;;;2.33;2.22;;;;;;;11.93;64.61;98571.25;5095942;28;20552;-58
2022/09/25 04:19:41;;;;;;;2.63;2.45;;;;;;;11.97;64.47;98570.91;5095587;28;20687;-58
2022/09/25 04:22:07;;;;;;;2.67;2.47;;;;;;;11.93;64.94;98573.84;5095651;28;20172;-58
2022/09/25 04:24:47;;;;;;;2.58;2.35;;;;;;;11.94;64.02;98571.16;5095625;28;20259;-58
2022/09/25 04:27:13;;;;;;;2.75;2.47;;;;;;;12.01;63.32;98592.28;5095841;28;20159;-58
2022/09/25 04:29:40;;;;;;;2.40;2.20;;;;;;;11.98;63.32;98597.69;5095508;28;20168;-58
2022/09/25 04:34:49;;;;;;;2.60;2.40;;;;;;;12.11;63.32;98591.53;5095980;28;20245;-58
2022/09/25 04:37:15;;;;;;;2.40;2.30;;;;;;;12.12;63.24;98582.78;5095530;28;20242;-58
2022/09/25 04:39:40;;;;;;;2.50;2.30;;;;;;;12.05;63.37;98601.50;5095365;28;20164;-58
2022/09/25 04:42:06;;;;;;;2.35;2.20;;;;;;;12.06;63.36;98572.03;5095260;28;20666;-59
2022/09/25 04:44:31;;;;;;;2.40;2.30;;;;;;;12.05;64.03;98578.16;5095163;28;20173;-58
2022/09/25 04:46:57;;;;;;;3.50;3.20;;;;;;;11.97;64.15;98581.28;5095192;28;20172;-58
2022/09/25 04:49:22;;;;;;;2.10;2.00;;;;;;;12.00;63.31;98580.25;5095017;28;20164;-58
2022/09/25 04:51:48;;;;;;;3.92;2.22;;;;;;;12.03;62.19;98577.44;5095322;28;20317;-58
2022/09/25 04:54:15;;;;;;;2.47;2.28;;;;;;;12.22;61.10;98577.78;5095054;28;20255;-58
2022/09/25 04:56:42;;;;;;;2.72;2.53;;;;;;;12.38;60.08;98573.94;5095133;28;20292;-58
2022/09/25 04:59:07;;;;;;;2.17;2.00;;;;;;;12.49;60.41;98575.75;5095076;28;20202;-58
2022/09/25 05:01:33;;;;;;;3.00;2.80;;;;;;;12.54;60.60;98578.84;5094877;28;20176;-58
2022/09/25 05:03:58;;;;;;;2.17;2.08;;;;;;;12.55;61.08;98596.06;5094831;28;20171;-58
2022/09/25 05:06:25;;;;;;;3.42;2.80;;;;;;;12.57;61.33;98604.56;5094819;28;20710;-58
2022/09/25 05:08:51;;;;;;;2.97;2.70;;;;;;;12.60;62.07;98606.97;5094752;28;20188;-58
2022/09/25 05:11:17;;;;;;;6.28;3.05;;;;;;;12.65;63.04;98610.03;5094878;28;20188;-58
2022/09/25 05:13:45;;;;;;;3.53;3.22;;;;;;;12.80;63.22;98616.69;5094691;28;20664;-58
2022/09/25 05:16:11;;;;;;;6.03;3.47;;;;;;;12.95;63.06;98620.75;5094539;28;20187;-59
2022/09/25 05:18:36;;;;;;;4.82;2.47;;;;;;;13.04;60.88;98614.88;5093480;28;20172;-59
2022/09/25 05:21:03;;;;;;;2.60;2.42;;;;;;;13.20;59.52;98620.59;5094556;28;20189;-58
2022/09/25 05:23:29;;;;;;;2.42;2.22;;;;;;;13.22;58.91;98618.69;5094476;28;20668;-59
2022/09/25 05:26:00;;;;;;;2.85;2.15;;;;;;;13.26;58.30;98614.91;5094658;28;20173;-58
2022/09/25 05:28:27;;;;;;;3.42;2.20;;;;;;;13.31;57.79;98623.19;5094391;28;20172;-58
2022/09/25 05:30:53;;;;;;;2.40;2.30;;;;;;;13.35;57.63;98620.25;5094359;28;20707;-59
2022/09/25 05:33:19;;;;;;;4.03;2.30;;;;;;;13.44;57.00;98613.50;5094318;28;20169;-59
2022/09/25 05:35:45;;;;;;;2.60;2.40;;;;;;;13.52;56.98;98624.16;5094416;28;20168;-59
2022/09/25 05:38:11;;;;;;;2.22;2.13;;;;;;;13.58;57.14;98634.91;5094093;28;20669;-59
2022/09/25 05:40:38;;;;;;;2.53;2.30;;;;;;;13.73;55.82;98632.91;5094174;28;20169;-59
2022/09/25 05:43:04;;;;;;;3.58;2.70;;;;;;;13.71;56.68;98625.22;5094353;28;20172;-59
2022/09/25 05:45:30;;;;;;;2.20;2.10;;;;;;;13.84;56.89;98636.34;5094084;28;20173;-59
2022/09/25 05:48:00;;;;;;;3.67;2.47;;;;;;;13.83;56.83;98631.25;5094005;28;20598;-59
2022/09/25 05:50:26;;;;;;;2.92;2.72;;;;;;;13.85;57.35;98630.19;5094200;28;20172;-59
2022/09/25 05:52:56;;;;;;;2.70;2.50;;;;;;;13.84;57.39;98640.69;5092648;28;20195;-59
2022/09/25 05:55:21;;;;;;;2.80;2.60;;;;;;;13.69;57.91;98641.88;5093860;28;20788;-59
2022/09/25 05:57:47;;;;;;;2.70;2.50;;;;;;;13.74;58.21;98637.16;5094003;28;20291;-59
2022/09/25 06:00:15;;;;;;;2.78;2.58;;;;;;;13.77;58.33;98634.31;5093745;28;20658;-59
2022/09/25 06:02:40;;;;;;;2.75;2.55;;;;;;;13.81;58.04;98638.31;5093679;28;20191;-59
2022/09/25 06:05:07;;;;;;;2.80;2.60;;;;;;;13.84;57.99;98638.09;5093644;28;20682;-59
2022/09/25 06:07:33;;;;;;;3.10;2.90;;;;;;;13.84;58.00;98638.09;5093562;28;20676;-59
2022/09/25 06:09:58;;;;;;;2.67;2.47;;;;;;;13.94;58.03;98634.66;5093430;28;20164;-59
2022/09/25 06:12:24;;;;;;;4.68;2.80;;;;;;;13.96;57.43;98639.75;5092992;28;20693;-59
2022/09/25 06:14:51;;;;;;;2.85;2.55;;;;;;;13.88;57.32;98634.31;5091823;28;20745;-59
2022/09/25 06:17:17;;;;;;;2.53;2.40;;;;;;;13.85;57.15;98632.78;5093113;28;20245;-59
2022/09/25 06:19:42;;;;;;;2.58;2.38;;;;;;;13.89;57.48;98626.38;5093112;28;20255;-59
2022/09/25 06:22:08;;;;;;;3.00;2.80;;;;;;;14.00;57.18;98628.16;5093319;28;20176;-59
2022/09/25 06:24:33;;;;;;;2.65;2.45;;;;;;;13.98;57.70;98625.66;5074980;28;20180;-59
2022/09/25 06:26:58;;;;;;;2.47;2.22;;;;;;;14.06;56.68;98630.25;5091563;28;20203;-59
2022/09/25 06:29:24;;;;;;;2.80;2.60;;;;;;;14.15;56.26;98637.31;5092813;28;20279;-59
2022/09/25 06:31:51;;;;;;;2.47;2.30;;;;;;;14.30;56.00;98630.94;5092566;28;20180;-59
2022/09/25 06:34:16;;;;;;;3.25;3.05;;;;;;;14.61;55.68;98620.53;5093007;28;20177;-58
2022/09/25 06:36:41;;;;;;;2.58;2.35;;;;;;;14.79;54.63;98623.41;5092999;28;20681;-59
2022/09/25 06:39:07;;;;;;;2.70;2.50;;;;;;;14.99;53.96;98617.41;5093236;28;20176;-59
2022/09/25 06:41:33;;;;;;;2.35;2.25;;;;;;;15.10;53.02;98619.94;5093326;28;20204;-59
2022/09/25 06:43:59;;;;;;;2.92;2.63;;;;;;;14.99;53.38;98606.97;5091715;28;20199;-59
2022/09/25 06:46:24;;;;;;;2.50;2.30;;;;;;;14.89;53.48;98600.88;5092768;28;20207;-59
2022/09/25 06:48:56;;;;;;;3.58;2.20;;;;;;;15.09;52.99;98613.06;5092930;28;20176;-59
2022/09/25 06:51:22;;;;;;;2.85;2.63;;;;;;;15.13;53.69;98602.25;5091480;28;20220;-59
2022/09/25 06:53:52;;;;;;;2.70;2.50;;;;;;;15.12;53.90;98605.00;5092792;28;20710;-59
2022/09/25 06:56:17;;;;;;;2.40;2.20;;;;;;;15.24;53.47;98614.38;5093021;28;20599;-58
2022/09/25 06:58:42;;;;;;;3.25;3.05;;;;;;;15.36;53.02;98619.44;5092633;28;20188;-59
2022/09/25 07:01:10;;;;;;;2.72;2.45;;;;;;;15.51;53.35;98614.72;5092483;28;20263;-59
2022/09/25 07:03:46;;;;;;;2.50;2.30;;;;;;;15.57;53.15;98617.59;5092516;28;20207;-59
2022/09/25 07:06:13;;;;;;;2.60;2.40;;;;;;;15.70;51.85;98614.78;5092667;28;20196;-58
2022/09/25 07:08:39;;;;;;;2.58;2.38;;;;;;;15.82;51.56;98622.38;5092579;28;20255;-59
2022/09/25 07:11:05;;;;;;;2.55;2.30;;;;;;;15.76;51.25;98622.91;5092667;28;20227;-58
2022/09/25 07:13:32;;;;;;;3.10;2.35;;;;;;;15.93;50.48;98618.84;5092520;28;20184;-59
2022/09/25 07:16:00;;;;;;;2.50;2.30;;;;;;;16.08;52.16;98627.94;5092390;28;20168;-59
2022/09/25 07:18:27;;;;;;;2.30;2.10;;;;;;;16.19;51.65;98610.38;5091923;28;20192;-58
2022/09/25 07:20:58;;;;;;;5.07;1.83;;;;;;;16.29;50.61;98610.38;5092010;28;20180;-58
2022/09/25 07:23:23;;;;;;;2.92;2.42;;;;;;;16.48;51.10;98615.66;5092059;28;20157;-58
2022/09/25 07:25:48;;;;;;;2.20;2.10;;;;;;;16.58;50.44;98613.88;5092289;28;20176;-58
2022/09/25 07:28:15;;;;;;;3.85;2.88;;;;;;;16.59;49.77;98613.75;5092676;28;20175;-58
2022/09/25 07:30:41;;;;;;;2.72;2.53;;;;;;;16.66;51.75;98606.16;5092609;28;20168;-58
2022/09/25 07:33:07;;;;;;;3.97;3.40;;;;;;;16.75;54.01;98619.25;5091989;28;20350;-59
2022/09/25 07:35:34;;;;;;;4.85;3.88;;;;;;;16.92;54.29;98620.34;5092063;28;20609;-58
2022/09/25 07:37:59;;;;;;;6.13;3.58;;;;;;;17.06;54.47;98625.97;5085842;28;20274;-58
2022/09/25 07:40:27;;;;;;;2.75;2.53;;;;;;;17.07;54.53;98629.38;5074461;28;20275;-58
2022/09/25 07:43:00;;;;;;;3.80;3.50;;;;;;;16.95;55.24;98626.09;5069816;28;20176;-58
2022/09/25 07:45:27;;;;;;;5.45;2.65;;;;;;;16.97;55.03;98623.34;5071859;28;20164;-59
2022/09/25 07:48:00;;;;;;;4.15;3.33;;;;;;;17.06;54.84;98627.72;5072392;28;20165;-58
2022/09/25 07:50:27;;;;;;;3.70;3.08;;;;;;;17.17;54.95;98630.19;5071832;28;20622;-58
2022/09/25 07:52:53;;;;;;;4.13;3.22;;;;;;;17.31;54.01;98627.16;5104376;28;20183;-58
2022/09/25 07:55:19;;;;;;;3.15;2.95;;;;;;;17.39;53.54;98630.75;5071638;28;20168;-59
2022/09/25 07:57:45;;;;;;;3.50;3.20;;;;;;;17.30;53.86;98618.47;5071641;28;20669;-58
2022/09/25 08:00:11;;;;;;;3.05;2.85;;;;;;;17.06;53.80;98610.28;5071793;28;20230;-58
2022/09/25 08:02:37;;;;;;;3.80;3.50;;;;;;;17.16;54.48;98633.78;5071798;28;20566;-58
2022/09/25 08:05:02;;;;;;;3.58;3.03;;;;;;;17.38;53.76;98615.19;5071773;28;20170;-59
2022/09/25 08:07:28;;;;;;;4.07;3.22;;;;;;;17.44;54.26;98619.84;5070128;28;20686;-58
2022/09/25 08:09:53;;;;;;;3.42;3.22;;;;;;;17.52;53.93;98617.34;5071429;28;20271;-58
2022/09/25 08:12:19;;;;;;;3.28;3.05;;;;;;;17.46;53.39;98617.91;5071381;28;20193;-59
2022/09/25 08:14:45;;;;;;;3.53;3.22;;;;;;;17.48;53.97;98608.13;5071562;28;20584;-58
2022/09/25 08:17:10;;;;;;;4.80;3.53;;;;;;;17.57;52.97;98602.88;5071272;28;20200;-58
2022/09/25 08:19:36;;;;;;;3.47;3.17;;;;;;;17.57;53.76;98596.78;5071174;28;20664;-58
2022/09/25 08:22:01;;;;;;;3.67;3.20;;;;;;;17.67;53.14;98594.97;5071476;28;20192;-60
2022/09/25 08:24:27;;;;;;;5.65;4.00;;;;;;;17.82;52.37;98591.72;5071660;28;20177;-58
2022/09/25 08:26:52;;;;;;;3.72;3.42;;;;;;;18.02;51.75;98592.44;5071145;28;20677;-59
2022/09/25 08:29:18;;;;;;;3.78;3.47;;;;;;;18.02;51.79;98595.06;5104068;28;20606;-59
2022/09/25 08:31:43;;;;;;;6.38;3.90;;;;;;;17.87;52.39;98592.13;5071424;28;20177;-59
2022/09/25 08:34:09;;;;;;;4.50;3.60;;;;;;;18.10;51.15;98603.00;5071464;28;20207;-59
2022/09/25 08:36:35;;;;;;;4.43;3.17;;;;;;;18.23;51.46;98599.06;5103875;28;20718;-59
2022/09/25 08:39:00;;;;;;;5.25;3.30;;;;;;;18.37;50.96;98598.56;5071377;28;20172;-59
2022/09/25 08:41:33;;;;;;;3.90;3.60;;;;;;;18.53;50.40;98597.94;5103615;28;20172;-59
2022/09/25 08:44:19;;;;;;;4.53;3.47;;;;;;;18.47;49.57;98594.09;5071264;28;20231;-59
2022/09/25 08:49:44;;;;;;;3.92;3.42;;;;;;;18.72;48.97;98582.84;5071697;28;20160;-59
2022/09/25 08:52:14;;;;;;;4.40;3.30;;;;;;;18.76;48.63;98578.13;5071227;28;20156;-59
2022/09/25 08:54:40;;;;;;;4.78;3.53;;;;;;;18.90;48.70;98582.81;5074269;28;20184;-59
2022/09/25 08:57:42;;;;;;;3.70;3.38;;;;;;;19.01;48.68;98578.16;5074711;28;20676;-59
2022/09/25 09:00:20;;;;;;;4.95;3.42;;;;;;;19.05;47.78;98581.31;5032698;28;20169;-59
2022/09/25 09:02:52;;;;;;;6.47;3.20;;;;;;;19.20;47.59;98577.13;5070021;28;20188;-59
2022/09/25 09:05:25;;;;;;;4.00;3.60;;;;;;;19.31;47.44;98576.91;5074957;28;20153;-59
2022/09/25 09:08:08;;;;;;;3.67;3.10;;;;;;;19.36;47.07;98577.25;5074915;28;20153;-59
2022/09/25 09:10:36;;;;;;;3.92;3.30;;;;;;;19.42;47.12;98576.63;5074752;28;20213;-59
2022/09/25 09:13:13;;;;;;;4.22;3.90;;;;;;;19.35;47.01;98573.00;5074510;28;20251;-59
2022/09/25 09:15:48;;;;;;;5.30;3.30;;;;;;;19.44;46.89;98575.50;5074636;28;20273;-59
2022/09/25 09:18:21;;;;;;;5.47;3.22;;;;;;;19.45;46.77;98568.44;5073052;28;20194;-59
2022/09/25 09:20:53;;;;;;;3.22;2.88;;;;;;;19.49;46.65;98568.00;5074320;28;20677;-59
2022/09/25 09:23:24;;;;;;;3.13;2.92;;;;;;;19.55;46.50;98577.88;5074221;28;20661;-59
2022/09/25 09:25:55;;;;;;;3.13;2.92;;;;;;;19.57;45.97;98575.91;5074432;28;20157;-59
2022/09/25 09:28:32;;;;;;;3.88;3.45;;;;;;;19.59;46.32;98573.91;5074322;28;20169;-59
2022/09/25 09:31:15;;;;;;;3.85;3.28;;;;;;;19.55;46.25;98579.66;5074237;28;20609;-59
2022/09/25 09:34:07;;;;;;;4.25;3.30;;;;;;;19.57;45.96;98578.53;5074444;28;20164;-59
2022/09/25 09:36:33;;;;;;;8.45;3.97;;;;;;;19.73;45.30;98583.00;5106618;28;20217;-59
2022/09/25 09:39:21;;;;;;;4.80;3.70;;;;;;;19.73;45.30;98570.72;5073976;28;20172;-59
2022/09/25 09:42:08;;;;;;;2.95;2.72;;;;;;;19.68;45.23;98564.28;5073590;28;20238;-59
2022/09/25 09:44:57;;;;;;;5.18;2.83;;;;;;;19.81;45.53;98551.56;5073873;28;20680;-59
2022/09/25 09:47:53;;;;;;;3.72;3.42;;;;;;;19.98;44.85;98556.69;5074349;28;20548;-57
2022/09/25 09:50:39;;;;;;;3.65;3.10;;;;;;;20.03;44.23;98540.44;5074116;28;20149;-59
2022/09/25 09:53:27;;;;;;;3.35;3.03;;;;;;;20.17;43.25;98539.84;5074003;28;20161;-59
2022/09/25 09:55:59;;;;;;;6.05;3.38;;;;;;;20.29;43.21;98534.09;5073792;28;20723;-59
2022/09/25 09:58:41;;;;;;;4.88;3.90;;;;;;;20.34;43.40;98534.44;5073886;28;20241;-59
2022/09/25 10:01:09;;;;;;;3.80;3.50;;;;;;;20.45;43.80;98531.50;5073748;28;20208;-59
2022/09/25 10:03:38;;;;;;;3.60;3.30;;;;;;;20.52;43.05;98529.84;5073617;28;20233;-59
2022/09/25 10:06:15;;;;;;;3.63;3.30;;;;;;;20.55;43.66;98526.06;5072860;28;20183;-59
2022/09/25 10:08:41;;;;;;;3.67;3.38;;;;;;;20.68;43.19;98518.53;5073552;28;20168;-59
2022/09/25 10:11:18;;;;;;;5.50;3.35;;;;;;;20.80;42.76;98515.38;5073338;28;20201;-58
2022/09/25 10:13:44;;;;;;;3.88;3.42;;;;;;;20.86;43.60;98517.34;5073344;28;20239;-59
2022/09/25 10:16:14;;;;;;;4.65;2.67;;;;;;;20.90;42.48;98515.22;5073217;28;20180;-59
2022/09/25 10:18:45;;;;;;;4.40;3.10;;;;;;;20.85;43.37;98520.97;5073270;28;20696;-58
2022/09/25 10:21:17;;;;;;;5.70;2.85;;;;;;;20.97;42.77;98519.66;5073187;28;20164;-59
2022/09/25 10:23:51;;;;;;;7.90;3.33;;;;;;;21.07;42.66;98511.56;5073322;28;20203;-59
2022/09/25 10:26:38;;;;;;;3.60;3.30;;;;;;;21.09;42.51;98509.63;5073349;28;20157;-59
2022/09/25 10:29:26;;;;;;;3.78;2.95;;;;;;;21.16;41.89;98506.13;5073224;28;20179;-59
2022/09/25 10:32:03;;;;;;;3.90;3.50;;;;;;;21.23;41.71;98508.91;5073228;28;20214;-59
2022/09/25 10:34:30;;;;;;;4.97;4.00;;;;;;;21.47;41.77;98508.81;5073169;28;20204;-59
2022/09/25 10:36:56;;;;;;;4.45;3.00;;;;;;;21.63;41.33;98504.28;5073025;28;20227;-59
2022/09/25 10:39:32;;;;;;;3.70;3.40;;;;;;;21.83;40.94;98502.09;5072739;28;20180;-59
2022/09/25 10:42:00;;;;;;;4.88;3.50;;;;;;;21.95;40.06;98503.34;5073276;28;20156;-59
2022/09/25 10:44:34;;;;;;;4.25;3.25;;;;;;;22.02;40.05;98499.84;5073092;28;20246;-59
2022/09/25 10:50:25;;;;;;;3.60;3.30;;;;;;;22.39;40.03;98496.47;5072585;28;20226;-59
2022/09/25 10:52:58;;;;;;;3.70;2.95;;;;;;;22.57;40.25;98494.34;5072586;28;20209;-59
2022/09/25 10:55:29;;;;;;;3.42;3.20;;;;;;;22.58;39.19;98485.44;5072722;28;20172;-59
2022/09/25 10:58:23;;;;;;;3.40;3.20;;;;;;;22.70;39.30;98484.00;5072423;28;20226;-59
2022/09/25 11:00:48;;;;;;;2.95;2.67;;;;;;;22.90;39.04;98483.31;5072444;28;20701;-59
2022/09/25 11:03:22;;;;;;;4.07;3.33;;;;;;;23.07;38.25;98473.44;5072445;28;20310;-59
2022/09/25 11:05:52;;;;;;;3.42;3.13;;;;;;;23.29;37.74;98472.53;5072478;28;20243;-59
2022/09/25 11:08:22;;;;;;;3.28;2.90;;;;;;;23.48;37.82;98490.47;5072337;28;20153;-59
2022/09/25 11:10:56;;;;;;;7.45;3.22;;;;;;;23.31;37.07;98476.63;5072449;28;20196;-59
2022/09/25 11:13:29;;;;;;;4.07;2.92;;;;;;;23.31;37.80;98470.53;5072268;28;20184;-59
2022/09/25 11:16:03;;;;;;;3.00;2.80;;;;;;;23.31;37.86;98470.53;5072410;28;20205;-59
2022/09/25 11:18:39;;;;;;;3.45;3.15;;;;;;;23.31;37.60;98470.53;5071746;28;20588;-59
2022/09/25 11:21:15;;;;;;;3.45;3.08;;;;;;;23.53;37.05;98465.13;5104760;28;20578;-59
2022/09/25 11:24:03;;;;;;;2.70;2.50;;;;;;;23.51;37.06;98458.38;5072327;28;20164;-59
2022/09/25 11:26:34;;;;;;;3.20;3.00;;;;;;;23.37;37.12;98456.59;5072400;28;20236;-59
2022/09/25 11:29:32;;;;;;;3.58;3.05;;;;;;;23.25;38.29;98455.44;5072107;28;20153;-59
2022/09/25 11:32:14;;;;;;;3.22;2.95;;;;;;;23.27;38.92;98448.13;5071921;28;20180;-59
2022/09/25 11:34:46;;;;;;;3.10;2.80;;;;;;;23.40;37.58;98443.00;5071975;28;20550;-59
2022/09/25 11:37:26;;;;;;;3.47;3.03;;;;;;;23.54;37.65;98436.91;5072019;28;20681;-60
2022/09/25 11:43:05;;;;;;;3.33;3.05;;;;;;;23.88;37.57;98429.97;5072141;28;20249;-59
2022/09/25 11:45:47;;;;;;;5.07;3.17;;;;;;;23.86;37.28;98430.13;5072069;28;20553;-59
2022/09/25 11:48:25;;;;;;;3.38;3.08;;;;;;;23.56;38.83;98421.66;5072101;28;20686;-59
2022/09/25 11:51:08;;;;;;;3.17;2.95;;;;;;;23.71;39.13;98422.47;5072348;28;20156;-59
2022/09/25 11:53:46;;;;;;;3.60;3.25;;;;;;;23.85;38.22;98425.84;5072196;28;20580;-58
2022/09/25 11:56:36;;;;;;;5.55;2.97;;;;;;;23.71;38.53;98423.25;5071885;28;20180;-57
2022/09/25 11:59:28;;;;;;;5.22;3.00;;;;;;;23.56;38.32;98419.88;5071357;28;20199;-59
2022/09/25 12:02:20;;;;;;;3.80;2.80;;;;;;;23.58;38.00;98419.66;5070232;28;20171;-59
2022/09/25 12:05:11;;;;;;;3.60;3.22;;;;;;;23.77;38.84;98419.06;5071440;28;20161;-59
2022/09/25 12:08:00;;;;;;;3.33;3.03;;;;;;;23.98;38.44;98403.22;5071169;28;20164;-59
2022/09/25 12:10:44;;;;;;;3.67;3.38;;;;;;;24.19;38.22;98402.22;5071319;28;20222;-59